createdAt,value
2022-10-23T00:01:19.924Z,7.03
2022-10-23T00:03:47.757Z,8.23
2022-10-23T00:06:16.051Z,11.07
2022-10-23T00:08:43.801Z,8.40
2022-10-23T00:11:13.614Z,6.33
2022-10-23T00:13:41.016Z,10.00
2022-10-23T00:16:08.896Z,5.30
2022-10-23T00:18:37.540Z,12.07
2022-10-23T00:21:06.235Z,8.10
2022-10-23T00:23:33.118Z,6.77
2022-10-23T00:26:00.535Z,8.53
2022-10-23T00:28:27.446Z,6.83
2022-10-23T00:30:54.544Z,7.63
2022-10-23T00:33:21.544Z,9.67
2022-10-23T00:35:48.491Z,6.30
2022-10-23T00:38:15.523Z,13.30
2022-10-23T00:40:44.200Z,8.63
2022-10-23T00:43:19.777Z,7.27
2022-10-23T00:45:46.736Z,7.07
2022-10-23T00:48:14.356Z,6.43
2022-10-23T00:50:42.176Z,6.20
2022-10-23T00:53:12.519Z,5.40
2022-10-23T00:55:45.992Z,7.17
2022-10-23T00:58:14.735Z,6.47
2022-10-23T01:00:52.659Z,8.73
2022-10-23T01:03:23.482Z,8.17
2022-10-23T01:05:59.391Z,6.90
2022-10-23T01:08:35.749Z,8.57
2022-10-23T01:11:12.431Z,9.37
2022-10-23T01:13:56.979Z,9.03
2022-10-23T01:16:33.698Z,6.10
2022-10-23T01:19:22.640Z,7.27
2022-10-23T01:22:03.443Z,7.03
2022-10-23T01:24:56.800Z,7.80
2022-10-23T01:27:26.743Z,10.40
2022-10-23T01:29:59.697Z,7.70
2022-10-23T01:32:39.026Z,5.57
2022-10-23T01:35:13.402Z,8.77
2022-10-23T01:37:45.281Z,7.40
2022-10-23T01:40:33.720Z,10.63
2022-10-23T01:43:16.757Z,8.47
2022-10-23T01:46:05.565Z,9.40
2022-10-23T01:48:36.897Z,7.43
2022-10-23T01:51:08.340Z,6.83
2022-10-23T01:53:41.287Z,8.07
2022-10-23T01:56:15.418Z,7.37
2022-10-23T01:58:52.290Z,4.93
2022-10-23T02:01:24.670Z,6.80
2022-10-23T02:06:29.310Z,7.87
2022-10-23T02:08:56.782Z,7.13
2022-10-23T02:11:23.909Z,11.23
2022-10-23T02:13:56.407Z,6.80
2022-10-23T02:17:11.064Z,10.93
2022-10-23T02:20:00.828Z,12.13
2022-10-23T02:22:35.791Z,8.80
2022-10-23T02:25:18.423Z,10.37
2022-10-23T02:27:52.868Z,6.97
2022-10-23T02:30:23.295Z,6.53
2022-10-23T02:33:08.097Z,6.30
2022-10-23T02:35:35.672Z,9.00
2022-10-23T02:38:36.992Z,8.43
2022-10-23T02:41:16.127Z,12.97
2022-10-23T02:44:19.597Z,6.43
2022-10-23T02:46:55.758Z,6.97
2022-10-23T02:49:54.252Z,5.80
2022-10-23T02:52:23.909Z,8.70
2022-10-23T02:55:10.998Z,8.10
2022-10-23T02:58:08.848Z,8.33
2022-10-23T03:00:46.046Z,5.50
2022-10-23T03:03:22.413Z,8.90
2022-10-23T03:05:49.338Z,9.33
2022-10-23T03:08:16.190Z,6.53
2022-10-23T03:10:43.623Z,6.33
2022-10-23T03:13:13.127Z,5.33
2022-10-23T03:15:44.241Z,6.20
2022-10-23T03:18:14.984Z,7.80
2022-10-23T03:20:46.935Z,7.03
2022-10-23T03:23:14.840Z,9.07
2022-10-23T03:25:42.818Z,7.47
2022-10-23T03:28:11.219Z,5.10
2022-10-23T03:30:38.372Z,8.23
2022-10-23T03:33:05.461Z,7.33
2022-10-23T03:35:35.359Z,8.93
2022-10-23T03:38:02.617Z,7.57
2022-10-23T03:40:29.493Z,7.63
2022-10-23T03:42:56.696Z,6.53
2022-10-23T03:45:23.655Z,7.43
2022-10-23T03:47:51.774Z,7.10
2022-10-23T03:50:19.626Z,7.30
2022-10-23T03:52:46.599Z,9.93
2022-10-23T03:55:14.661Z,6.57
2022-10-23T03:57:41.639Z,9.87
2022-10-23T04:00:09.521Z,5.10
2022-10-23T04:02:47.894Z,7.30
2022-10-23T04:05:15.969Z,7.70
2022-10-23T04:07:52.202Z,6.13
2022-10-23T04:10:19.685Z,5.27
2022-10-23T04:12:46.542Z,6.10
2022-10-23T04:15:13.507Z,7.97
2022-10-23T04:17:43.304Z,9.40
2022-10-23T04:20:10.438Z,11.23
2022-10-23T04:22:37.763Z,7.47
2022-10-23T04:25:04.882Z,8.37
2022-10-23T04:27:34.478Z,8.50
2022-10-23T04:30:03.720Z,7.10
2022-10-23T04:32:31.441Z,10.77
2022-10-23T04:34:58.285Z,8.67
2022-10-23T04:37:25.763Z,6.63
2022-10-23T04:39:52.586Z,7.17
2022-10-23T04:42:19.598Z,7.00
2022-10-23T04:44:47.741Z,9.67
2022-10-23T04:47:14.618Z,9.00
2022-10-23T04:49:53.864Z,7.67
2022-10-23T04:52:35.474Z,8.03
2022-10-23T04:55:22.693Z,9.47
2022-10-23T04:58:12.549Z,9.83
2022-10-23T05:00:39.604Z,9.83
2022-10-23T05:03:06.863Z,7.17
2022-10-23T05:05:37.822Z,7.63
2022-10-23T05:08:18.179Z,9.40
2022-10-23T05:11:00.406Z,6.77
2022-10-23T05:13:27.650Z,7.50
2022-10-23T05:15:54.741Z,6.60
2022-10-23T05:18:30.367Z,7.90
2022-10-23T05:21:02.444Z,8.47
2022-10-23T05:23:33.795Z,8.20
2022-10-23T05:26:03.499Z,9.07
2022-10-23T05:28:32.277Z,8.37
2022-10-23T05:31:02.728Z,8.27
2022-10-23T05:33:31.201Z,10.37
2022-10-23T05:35:58.902Z,10.33
2022-10-23T05:38:28.322Z,7.77
2022-10-23T05:40:55.264Z,10.33
2022-10-23T05:43:23.265Z,7.60
2022-10-23T05:46:06.834Z,8.73
2022-10-23T05:48:56.542Z,11.47
2022-10-23T05:51:51.055Z,8.80
2022-10-23T05:54:24.827Z,8.70
2022-10-23T05:57:00.430Z,7.37
2022-10-23T05:59:43.053Z,9.10
2022-10-23T06:02:21.823Z,8.80
2022-10-23T06:04:53.866Z,8.43
2022-10-23T06:07:40.041Z,11.07
2022-10-23T06:10:08.256Z,11.17
2022-10-23T06:12:39.765Z,9.60
2022-10-23T06:15:07.310Z,10.27
2022-10-23T06:17:52.466Z,9.37
2022-10-23T06:20:19.860Z,7.70
2022-10-23T06:22:57.785Z,8.63
2022-10-23T06:25:51.054Z,7.57
2022-10-23T06:28:20.552Z,11.87
2022-10-23T06:30:48.542Z,10.03
2022-10-23T06:33:15.376Z,9.73
2022-10-23T06:35:43.090Z,9.30
2022-10-23T06:38:11.818Z,10.03
2022-10-23T06:40:53.158Z,7.57
2022-10-23T06:43:26.148Z,8.67
2022-10-23T06:46:16.178Z,11.47
2022-10-23T06:49:01.550Z,7.67
2022-10-23T06:51:32.687Z,9.13
2022-10-23T06:53:59.563Z,9.87
2022-10-23T06:56:46.835Z,8.70
2022-10-23T06:59:14.379Z,11.93
2022-10-23T07:01:41.346Z,7.53
2022-10-23T07:04:09.884Z,6.87
2022-10-23T07:06:37.499Z,9.53
2022-10-23T07:09:04.407Z,7.60
2022-10-23T07:11:50.082Z,9.33
2022-10-23T07:14:18.275Z,6.37
2022-10-23T07:16:45.108Z,10.43
2022-10-23T07:19:13.202Z,10.67
2022-10-23T07:21:54.262Z,8.07
2022-10-23T07:24:41.402Z,7.70
2022-10-23T07:27:19.939Z,6.77
2022-10-23T07:29:54.038Z,6.63
2022-10-23T07:32:20.949Z,9.37
2022-10-23T07:35:07.644Z,8.00
2022-10-23T07:37:35.502Z,9.10
2022-10-23T07:40:08.046Z,9.47
2022-10-23T07:42:41.665Z,8.13
2022-10-23T07:45:09.160Z,7.50
2022-10-23T07:47:39.818Z,9.97
2022-10-23T07:50:08.790Z,13.07
2022-10-23T07:52:36.563Z,9.53
2022-10-23T07:55:10.628Z,8.27
2022-10-23T07:57:42.902Z,10.67
2022-10-23T08:00:20.549Z,8.63
2022-10-23T08:02:56.670Z,8.53
2022-10-23T08:05:23.990Z,8.27
2022-10-23T08:07:57.276Z,7.77
2022-10-23T08:10:24.569Z,12.90
2022-10-23T08:12:51.442Z,6.73
2022-10-23T08:15:21.888Z,9.90
2022-10-23T08:17:54.557Z,9.40
2022-10-23T08:20:41.968Z,9.93
2022-10-23T08:23:10.124Z,7.67
2022-10-23T08:25:37.089Z,8.87
2022-10-23T08:28:06.197Z,7.13
2022-10-23T08:30:39.944Z,11.77
2022-10-23T08:33:07.831Z,9.50
2022-10-23T08:35:38.477Z,8.63
2022-10-23T08:38:07.782Z,9.97
2022-10-23T08:40:44.887Z,11.00
2022-10-23T08:43:32.565Z,7.37
2022-10-23T08:46:18.009Z,7.67
2022-10-23T08:49:35.440Z,13.40
2022-10-23T08:52:19.295Z,8.57
2022-10-23T08:55:24.138Z,9.10
2022-10-23T08:58:00.977Z,7.23
2022-10-23T09:00:28.535Z,8.80
2022-10-23T09:02:55.671Z,10.00
2022-10-23T09:05:31.952Z,7.77
2022-10-23T09:08:16.025Z,8.23
2022-10-23T09:10:50.611Z,7.80
2022-10-23T09:13:30.741Z,6.73
2022-10-23T09:16:10.765Z,10.87
2022-10-23T09:18:40.335Z,5.87
2022-10-23T09:21:10.633Z,9.10
2022-10-23T09:23:38.225Z,7.20
2022-10-23T09:26:14.372Z,8.23
2022-10-23T09:28:55.346Z,10.30
2022-10-23T09:31:22.360Z,7.43
2022-10-23T09:34:01.529Z,7.80
2022-10-23T09:36:29.772Z,9.63
2022-10-23T09:38:59.855Z,7.07
2022-10-23T09:41:32.226Z,7.10
2022-10-23T09:44:23.372Z,6.97
2022-10-23T09:46:59.282Z,10.50
2022-10-23T09:49:29.253Z,11.40
2022-10-23T09:52:02.813Z,10.73
2022-10-23T09:54:33.042Z,6.07
2022-10-23T09:57:15.538Z,9.90
2022-10-23T09:59:43.039Z,5.03
2022-10-23T10:02:28.182Z,8.23
2022-10-23T10:05:24.316Z,7.63
2022-10-23T10:08:05.480Z,5.47
2022-10-23T10:10:42.020Z,12.47
2022-10-23T10:13:38.352Z,9.37
2022-10-23T10:16:41.936Z,8.53
2022-10-23T10:19:34.246Z,7.90
2022-10-23T10:22:01.090Z,8.70
2022-10-23T10:24:46.856Z,5.57
2022-10-23T10:27:35.201Z,6.47
2022-10-23T10:30:19.461Z,6.53
2022-10-23T10:33:15.484Z,6.23
2022-10-23T10:36:07.045Z,5.50
2022-10-23T10:38:47.952Z,7.50
2022-10-23T10:41:27.459Z,6.10
2022-10-23T10:44:12.904Z,5.77
2022-10-23T10:46:48.759Z,5.77
2022-10-23T10:49:53.485Z,7.60
2022-10-23T10:52:45.424Z,9.37
2022-10-23T10:55:21.328Z,6.73
2022-10-23T10:57:59.891Z,6.43
2022-10-23T11:00:30.309Z,7.00
2022-10-23T11:03:21.604Z,7.07
2022-10-23T11:05:50.634Z,5.47
2022-10-23T11:08:49.861Z,6.70
2022-10-23T11:11:33.250Z,5.33
2022-10-23T11:14:00.520Z,6.47
2022-10-23T11:16:29.577Z,3.93
2022-10-23T11:19:28.670Z,3.73
2022-10-23T11:22:29.535Z,5.43
2022-10-23T11:25:33.782Z,6.07
2022-10-23T11:28:25.423Z,4.63
2022-10-23T11:31:10.831Z,5.50
2022-10-23T11:34:09.008Z,4.77
2022-10-23T11:36:54.418Z,3.20
2022-10-23T11:39:35.921Z,6.00
2022-10-23T11:42:08.626Z,4.87
2022-10-23T11:44:42.743Z,4.13
2022-10-23T11:47:39.569Z,2.40
2022-10-23T11:50:07.086Z,3.30
2022-10-23T11:53:13.717Z,7.33
2022-10-23T11:56:19.449Z,3.57
2022-10-23T11:58:59.364Z,4.10
2022-10-23T12:01:30.837Z,4.50
2022-10-23T12:04:06.926Z,4.50
2022-10-23T12:06:40.511Z,4.40
2022-10-23T12:09:23.288Z,3.73
2022-10-23T12:12:07.614Z,3.93
2022-10-23T12:14:40.905Z,5.37
2022-10-23T12:17:24.164Z,2.40
2022-10-23T12:20:27.343Z,3.23
2022-10-23T12:23:03.729Z,6.10
2022-10-23T12:25:45.810Z,2.83
2022-10-23T12:28:37.225Z,3.47
2022-10-23T12:31:28.633Z,3.90
2022-10-23T12:33:58.244Z,5.40
2022-10-23T12:36:25.111Z,2.97
2022-10-23T12:38:52.135Z,8.40
2022-10-23T12:41:27.752Z,5.20
2022-10-23T12:44:04.469Z,8.37
2022-10-23T12:46:35.528Z,5.23
2022-10-23T12:49:14.463Z,8.37
2022-10-23T12:51:41.384Z,4.30
2022-10-23T12:54:20.396Z,2.93
2022-10-23T12:56:48.188Z,3.60
2022-10-23T12:59:18.606Z,5.40
2022-10-23T13:01:49.128Z,4.43
2022-10-23T13:04:34.640Z,3.67
2022-10-23T13:07:04.172Z,5.00
2022-10-23T13:09:41.970Z,4.37
2022-10-23T13:12:28.081Z,2.77
2022-10-23T13:14:58.848Z,4.03
2022-10-23T13:17:58.313Z,4.30
2022-10-23T13:20:27.026Z,3.87
2022-10-23T13:23:21.304Z,4.17
2022-10-23T13:25:56.057Z,4.17
2022-10-23T13:28:35.416Z,6.20
2022-10-23T13:31:12.437Z,7.17
2022-10-23T13:33:43.527Z,2.67
2022-10-23T13:36:13.604Z,4.43
2022-10-23T13:38:42.813Z,2.83
2022-10-23T13:41:16.539Z,7.27
2022-10-23T13:43:45.449Z,5.47
2022-10-23T13:46:17.406Z,2.77
2022-10-23T13:48:45.886Z,3.93
2022-10-23T13:51:24.125Z,4.93
2022-10-23T13:53:52.917Z,5.70
2022-10-23T13:56:21.466Z,6.37
2022-10-23T13:58:49.149Z,3.43
2022-10-23T14:01:23.561Z,6.30
2022-10-23T14:03:51.653Z,3.93
2022-10-23T14:06:18.931Z,3.17
2022-10-23T14:08:46.454Z,5.87
2022-10-23T14:13:47.759Z,5.93
2022-10-23T14:16:17.299Z,5.03
2022-10-23T14:18:44.790Z,5.60
2022-10-23T14:21:14.225Z,5.20
2022-10-23T14:23:41.747Z,3.57
2022-10-23T14:26:11.631Z,3.43
2022-10-23T14:28:39.260Z,2.77
2022-10-23T14:31:09.352Z,6.33
2022-10-23T14:33:36.664Z,3.73
2022-10-23T14:36:04.099Z,8.53
2022-10-23T14:38:31.078Z,4.50
2022-10-23T14:40:58.035Z,4.47
2022-10-23T14:43:25.467Z,4.40
2022-10-23T14:45:52.445Z,2.43
2022-10-23T14:48:19.650Z,6.27
2022-10-23T14:50:49.398Z,5.73
2022-10-23T14:53:16.424Z,3.63
2022-10-23T14:55:43.372Z,5.40
2022-10-23T14:58:10.469Z,4.87
2022-10-23T15:00:37.322Z,3.87
2022-10-23T15:03:04.342Z,2.53
2022-10-23T15:05:31.286Z,4.83
2022-10-23T15:07:59.057Z,6.93
2022-10-23T15:10:25.900Z,4.17
2022-10-23T15:12:52.829Z,4.37
2022-10-23T15:15:19.670Z,4.60
2022-10-23T15:17:46.474Z,1.87
2022-10-23T15:20:13.500Z,3.00
2022-10-23T15:22:40.431Z,5.03
2022-10-23T15:25:07.965Z,3.63
2022-10-23T15:27:35.559Z,2.83
2022-10-23T15:30:02.614Z,2.17
2022-10-23T15:32:29.862Z,3.97
2022-10-23T15:34:58.430Z,5.13
2022-10-23T15:37:25.497Z,2.27
2022-10-23T15:39:52.951Z,2.07
2022-10-23T15:42:20.059Z,3.40
2022-10-23T15:44:47.155Z,2.23
2022-10-23T15:47:14.327Z,4.17
2022-10-23T15:49:41.383Z,2.00
2022-10-23T15:54:37.434Z,3.43
2022-10-23T15:57:04.863Z,3.40
2022-10-23T15:59:32.578Z,4.60
2022-10-23T16:01:59.681Z,4.10
2022-10-23T16:04:28.628Z,4.03
2022-10-23T16:06:55.693Z,5.80
2022-10-23T16:09:22.869Z,2.77
2022-10-23T16:11:49.891Z,2.53
2022-10-23T16:14:17.597Z,3.57
2022-10-23T16:16:45.084Z,2.60
2022-10-23T16:19:12.786Z,2.47
2022-10-23T16:21:40.222Z,2.83
2022-10-23T16:24:08.835Z,2.73
2022-10-23T16:26:36.891Z,3.13
2022-10-23T16:29:06.485Z,2.27
2022-10-23T16:31:34.178Z,6.37
2022-10-23T16:34:02.590Z,4.57
2022-10-23T16:36:29.773Z,3.93
2022-10-23T16:39:22.268Z,4.40
2022-10-23T16:42:09.642Z,3.03
2022-10-23T16:45:01.328Z,7.43
2022-10-23T16:47:31.357Z,4.00
2022-10-23T16:49:58.212Z,4.80
2022-10-23T16:52:26.689Z,4.97
2022-10-23T16:54:53.892Z,3.50
2022-10-23T16:57:20.762Z,3.77
2022-10-23T16:59:47.843Z,6.07
2022-10-23T17:02:14.983Z,3.63
2022-10-23T17:04:41.958Z,5.40
2022-10-23T17:07:09.288Z,2.33
2022-10-23T17:09:36.786Z,3.50
2022-10-23T17:12:04.245Z,3.53
2022-10-23T17:14:31.784Z,5.13
2022-10-23T17:17:05.754Z,2.00
2022-10-23T17:19:44.696Z,5.40
2022-10-23T17:22:13.408Z,4.50
2022-10-23T17:24:42.016Z,2.73
2022-10-23T17:27:09.404Z,2.93
2022-10-23T17:29:36.833Z,6.43
2022-10-23T17:32:04.292Z,2.37
2022-10-23T17:34:31.144Z,3.63
2022-10-23T17:36:58.228Z,3.20
2022-10-23T17:39:28.660Z,4.37
2022-10-23T17:41:56.463Z,4.17
2022-10-23T17:44:23.971Z,5.13
2022-10-23T17:46:54.814Z,3.33
2022-10-23T17:49:22.813Z,5.47
2022-10-23T17:51:55.039Z,7.07
2022-10-23T17:54:23.158Z,6.37
2022-10-23T17:56:50.017Z,2.30
2022-10-23T17:59:20.810Z,3.33
2022-10-23T18:01:48.876Z,3.30
2022-10-23T18:04:19.135Z,2.57
2022-10-23T18:06:49.604Z,5.20
2022-10-23T18:09:17.189Z,1.97
2022-10-23T18:11:48.020Z,4.90
2022-10-23T18:14:16.744Z,2.03
2022-10-23T18:16:45.762Z,2.93
2022-10-23T18:19:13.600Z,2.90
2022-10-23T18:21:44.593Z,4.90
2022-10-23T18:24:11.895Z,3.37
2022-10-23T18:26:41.073Z,2.67
2022-10-23T18:29:10.423Z,6.97
2022-10-23T18:31:38.087Z,3.93
2022-10-23T18:34:11.774Z,2.57
2022-10-23T18:36:40.665Z,4.60
2022-10-23T18:39:11.441Z,6.73
2022-10-23T18:41:41.879Z,6.30
2022-10-23T18:44:10.332Z,5.43
2022-10-23T18:46:37.631Z,4.17
2022-10-23T18:49:05.417Z,5.40
2022-10-23T18:51:35.630Z,4.10
2022-10-23T18:54:06.592Z,4.37
2022-10-23T18:56:35.932Z,4.80
2022-10-23T18:59:05.809Z,4.20
2022-10-23T19:01:33.178Z,6.33
2022-10-23T19:04:01.659Z,5.53
2022-10-23T19:06:31.356Z,8.17
2022-10-23T19:08:59.258Z,5.00
2022-10-23T19:11:28.668Z,4.37
2022-10-23T19:13:55.952Z,7.43
2022-10-23T19:16:41.687Z,9.20
2022-10-23T19:19:20.013Z,4.60
2022-10-23T19:21:48.821Z,7.73
2022-10-23T19:24:21.730Z,2.67
2022-10-23T19:26:50.151Z,3.43
2022-10-23T19:29:20.504Z,9.13
2022-10-23T19:31:51.936Z,5.57
2022-10-23T19:34:24.851Z,5.23
2022-10-23T19:36:55.335Z,7.10
2022-10-23T19:39:23.059Z,4.13
2022-10-23T19:41:51.722Z,5.47
2022-10-23T19:44:19.465Z,4.47
2022-10-23T19:46:47.150Z,7.73
2022-10-23T19:49:14.441Z,4.00
2022-10-23T19:51:50.619Z,7.10
2022-10-23T19:54:19.521Z,2.60
2022-10-23T19:56:47.107Z,3.57
2022-10-23T19:59:14.617Z,8.87
2022-10-23T20:01:45.056Z,11.30
2022-10-23T20:04:17.629Z,7.27
2022-10-23T20:06:45.029Z,8.10
2022-10-23T20:09:12.590Z,5.83
2022-10-23T20:11:40.199Z,3.57
2022-10-23T20:14:07.405Z,5.60
2022-10-23T20:16:37.330Z,3.00
2022-10-23T20:19:07.166Z,2.53
2022-10-23T20:21:41.189Z,3.93
2022-10-23T20:24:09.359Z,5.90
2022-10-23T20:26:40.162Z,5.93
2022-10-23T20:29:07.179Z,7.33
2022-10-23T20:31:36.852Z,5.90
2022-10-23T20:34:03.691Z,4.70
2022-10-23T20:36:33.444Z,5.23
2022-10-23T20:39:04.997Z,3.10
2022-10-23T20:41:33.900Z,5.90
2022-10-23T20:44:00.977Z,3.53
2022-10-23T20:46:28.004Z,7.50
2022-10-23T20:48:54.988Z,5.33
2022-10-23T20:51:23.901Z,4.67
2022-10-23T20:53:51.943Z,4.77
2022-10-23T20:56:31.351Z,8.70
2022-10-23T20:59:18.816Z,3.23
2022-10-23T21:01:50.155Z,2.77
2022-10-23T21:04:20.504Z,5.27
2022-10-23T21:07:08.739Z,6.77
2022-10-23T21:09:38.198Z,4.80
2022-10-23T21:12:06.944Z,3.33
2022-10-23T21:14:34.525Z,4.83
2022-10-23T21:17:01.583Z,4.60
2022-10-23T21:19:28.510Z,4.23
2022-10-23T21:21:55.533Z,3.57
2022-10-23T21:24:22.727Z,4.57
2022-10-23T21:26:49.613Z,4.33
2022-10-23T21:29:19.139Z,3.27
2022-10-23T21:31:52.319Z,3.13
2022-10-23T21:34:19.096Z,3.80
2022-10-23T21:37:10.912Z,1.83
2022-10-23T21:39:34.479Z,3.83
2022-10-23T21:42:01.300Z,3.67
2022-10-23T21:44:28.218Z,2.67
2022-10-23T21:46:55.758Z,1.93
2022-10-23T21:49:22.697Z,3.67
2022-10-23T21:51:49.485Z,4.73
2022-10-23T21:54:16.573Z,5.47
2022-10-23T21:56:51.636Z,4.80
2022-10-23T21:59:21.254Z,2.13
2022-10-23T22:01:49.335Z,4.90
2022-10-23T22:04:18.073Z,3.20
2022-10-23T22:06:46.910Z,2.07
2022-10-23T22:09:17.406Z,3.17
2022-10-23T22:11:44.463Z,2.10
2022-10-23T22:14:11.711Z,4.53
2022-10-23T22:16:38.574Z,1.87
2022-10-23T22:19:25.597Z,2.87
2022-10-23T22:22:12.389Z,3.17
2022-10-23T22:24:39.472Z,3.63
2022-10-23T22:27:06.671Z,4.53
2022-10-23T22:29:33.693Z,4.00
2022-10-23T22:32:00.708Z,4.70
2022-10-23T22:37:17.226Z,4.23
2022-10-23T22:39:45.423Z,5.03
2022-10-23T22:42:12.230Z,3.70
2022-10-23T22:44:39.049Z,4.70
2022-10-23T22:47:06.649Z,3.70
2022-10-23T22:49:33.496Z,3.23
2022-10-23T22:52:00.428Z,3.13
2022-10-23T22:54:27.269Z,3.70
2022-10-23T22:56:54.219Z,3.10
2022-10-23T22:59:21.083Z,3.83
2022-10-23T23:01:48.508Z,2.93
2022-10-23T23:07:06.949Z,2.00
2022-10-23T23:09:36.902Z,3.07
2022-10-23T23:12:03.975Z,2.47
2022-10-23T23:14:30.965Z,5.27
2022-10-23T23:16:57.989Z,5.03
2022-10-23T23:19:26.598Z,3.90
2022-10-23T23:22:00.187Z,5.70
2022-10-23T23:24:27.290Z,4.63
2022-10-23T23:26:54.087Z,8.33
2022-10-23T23:29:20.898Z,9.47
2022-10-23T23:31:47.869Z,2.10
2022-10-23T23:34:14.695Z,1.87
2022-10-23T23:36:41.664Z,2.60
2022-10-23T23:39:08.602Z,2.23
2022-10-23T23:41:35.664Z,4.37
2022-10-23T23:44:02.689Z,3.10
2022-10-23T23:46:29.540Z,2.07
2022-10-23T23:48:56.367Z,2.00
2022-10-23T23:51:25.086Z,1.77
2022-10-23T23:53:53.167Z,3.93
2022-10-23T23:56:20.857Z,3.37
2022-10-23T23:58:48.074Z,3.53
